sensor_id;sensor_type;location;lat;lon;timestamp;pressure;altitude;pressure_sealevel;temperature;humidity
53514;BME280;39768;54.148;12.174;2022-07-18T00:00:36;102401.41;;;18.84;nan
53514;BME280;39768;54.148;12.174;2022-07-18T00:04:38;102388.91;;;18.80;nan
53514;BME280;39768;54.148;12.174;2022-07-18T00:08:39;102391.53;;;18.84;nan
53514;BME280;39768;54.148;12.174;2022-07-18T00:12:41;102390.53;;;18.87;nan
53514;BME280;39768;54.148;12.174;2022-07-18T00:16:42;102378.06;;;18.84;nan
53514;BME280;39768;54.148;12.174;2022-07-18T00:20:44;102379.22;;;18.71;nan
53514;BME280;39768;54.148;12.174;2022-07-18T00:24:46;102369.00;;;18.87;nan
53514;BME280;39768;54.148;12.174;2022-07-18T00:28:47;102375.44;;;18.81;nan
53514;BME280;39768;54.148;12.174;2022-07-18T00:32:49;102377.34;;;18.76;nan
53514;BME280;39768;54.148;12.174;2022-07-18T00:36:50;102371.41;;;18.57;nan
53514;BME280;39768;54.148;12.174;2022-07-18T00:40:52;102370.41;;;18.64;nan
53514;BME280;39768;54.148;12.174;2022-07-18T00:44:54;102359.09;;;18.47;nan
53514;BME280;39768;54.148;12.174;2022-07-18T00:48:56;102357.09;;;18.58;nan
53514;BME280;39768;54.148;12.174;2022-07-18T00:52:57;102366.25;;;18.48;nan
53514;BME280;39768;54.148;12.174;2022-07-18T00:56:59;102359.94;;;18.49;nan
53514;BME280;39768;54.148;12.174;2022-07-18T01:01:01;102363.50;;;18.51;nan
53514;BME280;39768;54.148;12.174;2022-07-18T01:05:22;102367.16;;;18.47;nan
53514;BME280;39768;54.148;12.174;2022-07-18T01:09:23;102367.19;;;18.46;nan
53514;BME280;39768;54.148;12.174;2022-07-18T01:13:25;102375.41;;;18.38;nan
53514;BME280;39768;54.148;12.174;2022-07-18T01:17:27;102375.09;;;18.53;nan
53514;BME280;39768;54.148;12.174;2022-07-18T01:21:33;102377.00;;;18.48;nan
53514;BME280;39768;54.148;12.174;2022-07-18T01:25:35;102380.00;;;18.33;nan
53514;BME280;39768;54.148;12.174;2022-07-18T01:29:36;102374.69;;;18.28;nan
53514;BME280;39768;54.148;12.174;2022-07-18T01:33:38;102371.97;;;18.30;nan
53514;BME280;39768;54.148;12.174;2022-07-18T01:37:39;102357.69;;;18.28;nan
53514;BME280;39768;54.148;12.174;2022-07-18T01:41:41;102365.34;;;18.03;nan
53514;BME280;39768;54.148;12.174;2022-07-18T01:45:43;102360.00;;;18.00;nan
53514;BME280;39768;54.148;12.174;2022-07-18T01:49:45;102360.63;;;18.14;nan
53514;BME280;39768;54.148;12.174;2022-07-18T01:53:54;102355.75;;;17.88;nan
53514;BME280;39768;54.148;12.174;2022-07-18T01:57:59;102356.63;;;17.90;nan
53514;BME280;39768;54.148;12.174;2022-07-18T02:02:03;102355.09;;;17.76;nan
53514;BME280;39768;54.148;12.174;2022-07-18T02:06:09;102370.09;;;17.87;nan
53514;BME280;39768;54.148;12.174;2022-07-18T02:10:13;102371.16;;;17.80;nan
53514;BME280;39768;54.148;12.174;2022-07-18T02:14:15;102379.13;;;17.83;nan
53514;BME280;39768;54.148;12.174;2022-07-18T02:18:16;102376.44;;;17.83;nan
53514;BME280;39768;54.148;12.174;2022-07-18T02:22:19;102377.00;;;18.02;nan
53514;BME280;39768;54.148;12.174;2022-07-18T02:26:21;102369.16;;;17.91;nan
53514;BME280;39768;54.148;12.174;2022-07-18T02:30:23;102361.88;;;17.96;nan
53514;BME280;39768;54.148;12.174;2022-07-18T02:34:25;102354.41;;;17.65;nan
53514;BME280;39768;54.148;12.174;2022-07-18T02:38:27;102351.66;;;17.66;nan
53514;BME280;39768;54.148;12.174;2022-07-18T02:42:28;102350.56;;;17.79;nan
53514;BME280;39768;54.148;12.174;2022-07-18T02:46:30;102341.50;;;17.83;nan
53514;BME280;39768;54.148;12.174;2022-07-18T02:50:32;102337.19;;;17.76;nan
53514;BME280;39768;54.148;12.174;2022-07-18T02:54:35;102352.59;;;17.08;nan
53514;BME280;39768;54.148;12.174;2022-07-18T02:58:36;102344.78;;;16.21;nan
53514;BME280;39768;54.148;12.174;2022-07-18T03:02:38;102336.28;;;15.81;nan
53514;BME280;39768;54.148;12.174;2022-07-18T03:06:40;102342.19;;;16.13;nan
53514;BME280;39768;54.148;12.174;2022-07-18T03:10:41;102342.22;;;16.10;nan
53514;BME280;39768;54.148;12.174;2022-07-18T03:14:43;102342.22;;;16.12;nan
53514;BME280;39768;54.148;12.174;2022-07-18T03:18:44;102339.69;;;15.97;nan
53514;BME280;39768;54.148;12.174;2022-07-18T03:22:46;102340.06;;;15.59;nan
53514;BME280;39768;54.148;12.174;2022-07-18T03:26:50;102338.81;;;15.98;nan
53514;BME280;39768;54.148;12.174;2022-07-18T03:30:51;102340.50;;;16.03;nan
53514;BME280;39768;54.148;12.174;2022-07-18T03:34:53;102333.59;;;15.82;nan
53514;BME280;39768;54.148;12.174;2022-07-18T03:38:55;102345.78;;;16.12;nan
53514;BME280;39768;54.148;12.174;2022-07-18T03:42:56;102337.63;;;16.23;nan
53514;BME280;39768;54.148;12.174;2022-07-18T03:46:58;102337.25;;;16.52;nan
53514;BME280;39768;54.148;12.174;2022-07-18T03:51:00;102330.13;;;16.51;nan
53514;BME280;39768;54.148;12.174;2022-07-18T03:55:02;102328.13;;;16.70;nan
53514;BME280;39768;54.148;12.174;2022-07-18T03:59:04;102325.59;;;16.54;nan
53514;BME280;39768;54.148;12.174;2022-07-18T04:03:06;102323.28;;;16.26;nan
53514;BME280;39768;54.148;12.174;2022-07-18T04:07:07;102328.59;;;16.32;nan
53514;BME280;39768;54.148;12.174;2022-07-18T04:11:09;102332.75;;;16.54;nan
53514;BME280;39768;54.148;12.174;2022-07-18T04:15:10;102326.66;;;18.96;nan
53514;BME280;39768;54.148;12.174;2022-07-18T04:19:12;102316.28;;;21.63;nan
53514;BME280;39768;54.148;12.174;2022-07-18T04:23:14;102318.31;;;23.44;nan
53514;BME280;39768;54.148;12.174;2022-07-18T04:27:17;102318.84;;;23.74;nan
53514;BME280;39768;54.148;12.174;2022-07-18T04:31:19;102317.16;;;24.89;nan
53514;BME280;39768;54.148;12.174;2022-07-18T04:35:22;102331.38;;;25.85;nan
53514;BME280;39768;54.148;12.174;2022-07-18T04:39:23;102332.31;;;25.84;nan
53514;BME280;39768;54.148;12.174;2022-07-18T04:43:25;102326.34;;;26.93;nan
53514;BME280;39768;54.148;12.174;2022-07-18T04:47:27;102330.19;;;27.36;nan
53514;BME280;39768;54.148;12.174;2022-07-18T04:51:30;102322.53;;;26.31;nan
53514;BME280;39768;54.148;12.174;2022-07-18T04:55:32;102321.44;;;26.51;nan
53514;BME280;39768;54.148;12.174;2022-07-18T04:59:33;102320.59;;;26.66;nan
53514;BME280;39768;54.148;12.174;2022-07-18T05:03:37;102321.78;;;25.42;nan
53514;BME280;39768;54.148;12.174;2022-07-18T05:07:40;102315.50;;;25.58;nan
53514;BME280;39768;54.148;12.174;2022-07-18T05:11:42;102318.94;;;24.71;nan
53514;BME280;39768;54.148;12.174;2022-07-18T05:15:44;102306.66;;;23.20;nan
53514;BME280;39768;54.148;12.174;2022-07-18T05:19:45;102314.94;;;22.01;nan
53514;BME280;39768;54.148;12.174;2022-07-18T05:23:47;102314.56;;;21.60;nan
53514;BME280;39768;54.148;12.174;2022-07-18T05:27:49;102312.31;;;21.46;nan
53514;BME280;39768;54.148;12.174;2022-07-18T05:31:51;102303.34;;;21.20;nan
53514;BME280;39768;54.148;12.174;2022-07-18T05:35:53;102304.94;;;21.25;nan
53514;BME280;39768;54.148;12.174;2022-07-18T05:39:54;102312.16;;;20.67;nan
53514;BME280;39768;54.148;12.174;2022-07-18T05:43:56;102314.41;;;20.53;nan
53514;BME280;39768;54.148;12.174;2022-07-18T05:47:57;102317.56;;;20.67;nan
53514;BME280;39768;54.148;12.174;2022-07-18T05:51:59;102325.50;;;20.73;nan
53514;BME280;39768;54.148;12.174;2022-07-18T05:56:00;102330.38;;;20.61;nan
53514;BME280;39768;54.148;12.174;2022-07-18T06:00:04;102328.09;;;20.76;nan
53514;BME280;39768;54.148;12.174;2022-07-18T06:04:09;102320.09;;;21.01;nan
53514;BME280;39768;54.148;12.174;2022-07-18T06:08:10;102317.88;;;21.14;nan
53514;BME280;39768;54.148;12.174;2022-07-18T06:12:12;102319.13;;;21.04;nan
53514;BME280;39768;54.148;12.174;2022-07-18T06:16:13;102321.84;;;21.32;nan
53514;BME280;39768;54.148;12.174;2022-07-18T06:20:15;102312.69;;;21.87;nan
53514;BME280;39768;54.148;12.174;2022-07-18T06:24:17;102316.31;;;21.61;nan
53514;BME280;39768;54.148;12.174;2022-07-18T06:28:18;102310.25;;;22.06;nan
53514;BME280;39768;54.148;12.174;2022-07-18T06:32:20;102312.63;;;21.89;nan
53514;BME280;39768;54.148;12.174;2022-07-18T06:36:22;102307.53;;;21.28;nan
53514;BME280;39768;54.148;12.174;2022-07-18T06:40:25;102311.25;;;21.77;nan
53514;BME280;39768;54.148;12.174;2022-07-18T06:44:27;102309.25;;;21.57;nan
53514;BME280;39768;54.148;12.174;2022-07-18T06:48:28;102311.22;;;21.26;nan
53514;BME280;39768;54.148;12.174;2022-07-18T06:52:34;102318.06;;;21.08;nan
53514;BME280;39768;54.148;12.174;2022-07-18T06:56:35;102317.00;;;21.13;nan
53514;BME280;39768;54.148;12.174;2022-07-18T07:00:37;102315.59;;;21.30;nan
53514;BME280;39768;54.148;12.174;2022-07-18T07:04:38;102315.78;;;21.24;nan
53514;BME280;39768;54.148;12.174;2022-07-18T07:08:40;102311.34;;;21.49;nan
53514;BME280;39768;54.148;12.174;2022-07-18T07:12:47;102313.78;;;21.57;nan
53514;BME280;39768;54.148;12.174;2022-07-18T07:16:48;102311.78;;;22.13;nan
53514;BME280;39768;54.148;12.174;2022-07-18T07:20:50;102316.28;;;22.12;nan
53514;BME280;39768;54.148;12.174;2022-07-18T07:24:53;102315.09;;;22.68;nan
53514;BME280;39768;54.148;12.174;2022-07-18T07:28:55;102321.06;;;22.77;nan
53514;BME280;39768;54.148;12.174;2022-07-18T07:32:56;102326.31;;;23.26;nan
53514;BME280;39768;54.148;12.174;2022-07-18T07:36:58;102323.91;;;23.40;nan
53514;BME280;39768;54.148;12.174;2022-07-18T07:40:59;102319.69;;;23.33;nan
53514;BME280;39768;54.148;12.174;2022-07-18T07:45:03;102321.44;;;22.90;nan
53514;BME280;39768;54.148;12.174;2022-07-18T07:49:05;102330.88;;;22.33;nan
53514;BME280;39768;54.148;12.174;2022-07-18T07:53:07;102336.78;;;22.43;nan
53514;BME280;39768;54.148;12.174;2022-07-18T07:57:08;102334.69;;;22.51;nan
53514;BME280;39768;54.148;12.174;2022-07-18T08:01:10;102331.72;;;22.82;nan
53514;BME280;39768;54.148;12.174;2022-07-18T08:05:13;102327.75;;;22.91;nan
53514;BME280;39768;54.148;12.174;2022-07-18T08:09:14;102332.84;;;22.76;nan
53514;BME280;39768;54.148;12.174;2022-07-18T08:13:16;102327.88;;;22.88;nan
53514;BME280;39768;54.148;12.174;2022-07-18T08:17:18;102325.91;;;23.14;nan
53514;BME280;39768;54.148;12.174;2022-07-18T08:21:19;102312.66;;;22.85;nan
53514;BME280;39768;54.148;12.174;2022-07-18T08:25:21;102321.78;;;23.26;nan
53514;BME280;39768;54.148;12.174;2022-07-18T08:29:22;102314.97;;;22.94;nan
53514;BME280;39768;54.148;12.174;2022-07-18T08:33:45;102309.50;;;22.96;nan
53514;BME280;39768;54.148;12.174;2022-07-18T08:37:46;102311.50;;;22.91;nan
53514;BME280;39768;54.148;12.174;2022-07-18T08:41:50;102301.00;;;22.83;nan
53514;BME280;39768;54.148;12.174;2022-07-18T08:45:56;102303.28;;;22.70;nan
53514;BME280;39768;54.148;12.174;2022-07-18T08:49:59;102296.00;;;22.26;nan
53514;BME280;39768;54.148;12.174;2022-07-18T08:54:02;102289.66;;;22.72;nan
53514;BME280;39768;54.148;12.174;2022-07-18T08:58:04;102281.06;;;22.61;nan
53514;BME280;39768;54.148;12.174;2022-07-18T09:02:26;102279.75;;;22.71;nan
53514;BME280;39768;54.148;12.174;2022-07-18T09:06:41;102279.97;;;22.66;nan
53514;BME280;39768;54.148;12.174;2022-07-18T09:10:51;102289.47;;;23.00;nan
53514;BME280;39768;54.148;12.174;2022-07-18T09:14:53;102290.00;;;22.86;nan
53514;BME280;39768;54.148;12.174;2022-07-18T09:18:55;102281.88;;;22.86;nan
53514;BME280;39768;54.148;12.174;2022-07-18T09:22:57;102278.84;;;23.37;nan
53514;BME280;39768;54.148;12.174;2022-07-18T09:26:58;102278.03;;;23.35;nan
53514;BME280;39768;54.148;12.174;2022-07-18T09:31:16;102269.47;;;23.24;nan
53514;BME280;39768;54.148;12.174;2022-07-18T09:35:24;102273.94;;;23.25;nan
53514;BME280;39768;54.148;12.174;2022-07-18T09:39:26;102265.00;;;23.23;nan
53514;BME280;39768;54.148;12.174;2022-07-18T09:43:28;102276.38;;;23.11;nan
53514;BME280;39768;54.148;12.174;2022-07-18T09:47:29;102274.66;;;23.08;nan
53514;BME280;39768;54.148;12.174;2022-07-18T09:51:31;102264.97;;;22.81;nan
53514;BME280;39768;54.148;12.174;2022-07-18T09:55:33;102277.53;;;23.04;nan
53514;BME280;39768;54.148;12.174;2022-07-18T09:59:36;102284.03;;;22.78;nan
53514;BME280;39768;54.148;12.174;2022-07-18T10:03:38;102284.13;;;22.98;nan
53514;BME280;39768;54.148;12.174;2022-07-18T10:07:41;102287.88;;;23.16;nan
53514;BME280;39768;54.148;12.174;2022-07-18T10:11:43;102282.31;;;23.19;nan
53514;BME280;39768;54.148;12.174;2022-07-18T10:15:47;102282.03;;;23.27;nan
53514;BME280;39768;54.148;12.174;2022-07-18T10:19:49;102287.31;;;23.08;nan
53514;BME280;39768;54.148;12.174;2022-07-18T10:23:51;102293.59;;;22.86;nan
53514;BME280;39768;54.148;12.174;2022-07-18T10:28:04;102285.31;;;22.91;nan
53514;BME280;39768;54.148;12.174;2022-07-18T10:32:06;102299.03;;;23.08;nan
53514;BME280;39768;54.148;12.174;2022-07-18T10:36:13;102282.75;;;23.30;nan
53514;BME280;39768;54.148;12.174;2022-07-18T10:40:27;102282.63;;;23.33;nan
53514;BME280;39768;54.148;12.174;2022-07-18T11:00:42;102272.03;;;23.89;nan
53514;BME280;39768;54.148;12.174;2022-07-18T11:04:45;102272.91;;;24.10;nan
53514;BME280;39768;54.148;12.174;2022-07-18T11:08:47;102268.69;;;24.23;nan
53514;BME280;39768;54.148;12.174;2022-07-18T11:22:03;102262.47;;;25.33;nan
53514;BME280;39768;54.148;12.174;2022-07-18T11:26:05;102259.59;;;25.36;nan
53514;BME280;39768;54.148;12.174;2022-07-18T11:30:07;102256.81;;;25.01;nan
53514;BME280;39768;54.148;12.174;2022-07-18T11:34:08;102252.25;;;25.02;nan
53514;BME280;39768;54.148;12.174;2022-07-18T11:38:10;102233.19;;;25.72;nan
53514;BME280;39768;54.148;12.174;2022-07-18T11:42:11;102216.44;;;26.46;nan
53514;BME280;39768;54.148;12.174;2022-07-18T11:46:16;102216.59;;;27.06;nan
53514;BME280;39768;54.148;12.174;2022-07-18T11:50:26;102215.28;;;27.13;nan
53514;BME280;39768;54.148;12.174;2022-07-18T11:54:35;102216.25;;;28.00;nan
53514;BME280;39768;54.148;12.174;2022-07-18T11:58:38;102216.84;;;28.19;nan
53514;BME280;39768;54.148;12.174;2022-07-18T12:02:39;102214.09;;;28.33;nan
53514;BME280;39768;54.148;12.174;2022-07-18T12:06:41;102210.59;;;28.31;nan
53514;BME280;39768;54.148;12.174;2022-07-18T12:10:42;102205.22;;;27.87;nan
53514;BME280;39768;54.148;12.174;2022-07-18T12:14:59;102199.44;;;27.78;nan
53514;BME280;39768;54.148;12.174;2022-07-18T12:19:17;102192.25;;;27.47;nan
53514;BME280;39768;54.148;12.174;2022-07-18T12:23:27;102197.13;;;27.86;nan
53514;BME280;39768;54.148;12.174;2022-07-18T12:31:44;102196.38;;;27.54;nan
53514;BME280;39768;54.148;12.174;2022-07-18T12:35:58;102197.25;;;27.10;nan
53514;BME280;39768;54.148;12.174;2022-07-18T12:40:10;102191.09;;;27.07;nan
53514;BME280;39768;54.148;12.174;2022-07-18T12:44:30;102187.16;;;27.26;nan
53514;BME280;39768;54.148;12.174;2022-07-18T12:48:32;102183.31;;;27.45;nan
53514;BME280;39768;54.148;12.174;2022-07-18T12:52:34;102180.78;;;27.56;nan
53514;BME280;39768;54.148;12.174;2022-07-18T12:56:36;102182.09;;;27.64;nan
53514;BME280;39768;54.148;12.174;2022-07-18T13:00:37;102169.84;;;27.71;nan
53514;BME280;39768;54.148;12.174;2022-07-18T13:04:39;102173.44;;;27.86;nan
53514;BME280;39768;54.148;12.174;2022-07-18T13:08:40;102167.28;;;27.83;nan
53514;BME280;39768;54.148;12.174;2022-07-18T13:12:42;102150.31;;;27.63;nan
53514;BME280;39768;54.148;12.174;2022-07-18T13:16:44;102137.31;;;27.53;nan
53514;BME280;39768;54.148;12.174;2022-07-18T13:20:48;102137.59;;;27.48;nan
53514;BME280;39768;54.148;12.174;2022-07-18T13:24:50;102128.41;;;27.65;nan
53514;BME280;39768;54.148;12.174;2022-07-18T13:28:51;102122.66;;;27.11;nan
53514;BME280;39768;54.148;12.174;2022-07-18T13:32:55;102119.56;;;27.31;nan
53514;BME280;39768;54.148;12.174;2022-07-18T13:36:56;102115.75;;;27.20;nan
53514;BME280;39768;54.148;12.174;2022-07-18T13:40:58;102111.00;;;27.23;nan
53514;BME280;39768;54.148;12.174;2022-07-18T13:45:00;102105.47;;;27.53;nan
53514;BME280;39768;54.148;12.174;2022-07-18T13:49:01;102108.19;;;27.53;nan
53514;BME280;39768;54.148;12.174;2022-07-18T13:53:03;102102.91;;;27.36;nan
53514;BME280;39768;54.148;12.174;2022-07-18T13:57:04;102108.19;;;27.53;nan
53514;BME280;39768;54.148;12.174;2022-07-18T14:01:06;102104.69;;;27.94;nan
53514;BME280;39768;54.148;12.174;2022-07-18T14:05:08;102104.53;;;27.68;nan
53514;BME280;39768;54.148;12.174;2022-07-18T14:09:15;102098.84;;;28.41;nan
53514;BME280;39768;54.148;12.174;2022-07-18T14:13:16;102105.25;;;28.13;nan
53514;BME280;39768;54.148;12.174;2022-07-18T14:17:18;102112.56;;;28.27;nan
53514;BME280;39768;54.148;12.174;2022-07-18T14:21:19;102112.56;;;28.13;nan
53514;BME280;39768;54.148;12.174;2022-07-18T14:25:21;102110.66;;;27.72;nan
53514;BME280;39768;54.148;12.174;2022-07-18T14:29:22;102101.97;;;27.51;nan
53514;BME280;39768;54.148;12.174;2022-07-18T14:33:24;102098.69;;;27.75;nan
53514;BME280;39768;54.148;12.174;2022-07-18T14:37:25;102099.13;;;27.95;nan
53514;BME280;39768;54.148;12.174;2022-07-18T14:41:27;102089.53;;;28.31;nan
53514;BME280;39768;54.148;12.174;2022-07-18T14:45:29;102080.03;;;27.95;nan
53514;BME280;39768;54.148;12.174;2022-07-18T14:49:33;102079.88;;;28.25;nan
53514;BME280;39768;54.148;12.174;2022-07-18T14:53:35;102075.69;;;28.20;nan
53514;BME280;39768;54.148;12.174;2022-07-18T14:57:36;102069.75;;;28.13;nan
53514;BME280;39768;54.148;12.174;2022-07-18T15:01:38;102067.41;;;28.21;nan
53514;BME280;39768;54.148;12.174;2022-07-18T15:05:40;102075.47;;;28.50;nan
53514;BME280;39768;54.148;12.174;2022-07-18T15:09:41;102054.13;;;28.69;nan
53514;BME280;39768;54.148;12.174;2022-07-18T15:13:43;102058.94;;;29.18;nan
53514;BME280;39768;54.148;12.174;2022-07-18T15:17:45;102048.00;;;30.05;nan
53514;BME280;39768;54.148;12.174;2022-07-18T15:21:46;102044.22;;;29.69;nan
53514;BME280;39768;54.148;12.174;2022-07-18T15:25:48;102044.94;;;30.09;nan
53514;BME280;39768;54.148;12.174;2022-07-18T15:29:53;102046.72;;;30.45;nan
53514;BME280;39768;54.148;12.174;2022-07-18T15:33:55;102042.19;;;30.09;nan
53514;BME280;39768;54.148;12.174;2022-07-18T15:37:57;102046.03;;;29.45;nan
53514;BME280;39768;54.148;12.174;2022-07-18T15:41:59;102035.66;;;28.72;nan
53514;BME280;39768;54.148;12.174;2022-07-18T15:46:00;102026.31;;;29.27;nan
53514;BME280;39768;54.148;12.174;2022-07-18T15:50:02;102023.34;;;29.56;nan
53514;BME280;39768;54.148;12.174;2022-07-18T15:54:04;102021.88;;;28.61;nan
53514;BME280;39768;54.148;12.174;2022-07-18T15:58:05;102027.03;;;28.12;nan
53514;BME280;39768;54.148;12.174;2022-07-18T16:02:07;102025.63;;;28.33;nan
53514;BME280;39768;54.148;12.174;2022-07-18T16:06:08;102015.22;;;28.26;nan
53514;BME280;39768;54.148;12.174;2022-07-18T16:10:10;102011.63;;;28.38;nan
53514;BME280;39768;54.148;12.174;2022-07-18T16:14:12;102019.63;;;28.81;nan
53514;BME280;39768;54.148;12.174;2022-07-18T16:18:14;102011.66;;;28.90;nan
53514;BME280;39768;54.148;12.174;2022-07-18T16:22:15;102000.94;;;28.87;nan
53514;BME280;39768;54.148;12.174;2022-07-18T16:26:17;101997.00;;;29.04;nan
53514;BME280;39768;54.148;12.174;2022-07-18T16:30:19;102002.13;;;28.96;nan
53514;BME280;39768;54.148;12.174;2022-07-18T16:34:21;101987.13;;;29.27;nan
53514;BME280;39768;54.148;12.174;2022-07-18T16:38:22;101972.59;;;28.63;nan
53514;BME280;39768;54.148;12.174;2022-07-18T16:42:24;101953.47;;;28.23;nan
53514;BME280;39768;54.148;12.174;2022-07-18T16:46:26;101957.34;;;28.33;nan
53514;BME280;39768;54.148;12.174;2022-07-18T16:50:28;101966.44;;;28.59;nan
53514;BME280;39768;54.148;12.174;2022-07-18T16:54:30;101971.03;;;28.46;nan
53514;BME280;39768;54.148;12.174;2022-07-18T16:58:32;101972.06;;;28.96;nan
53514;BME280;39768;54.148;12.174;2022-07-18T17:02:35;101969.41;;;28.56;nan
53514;BME280;39768;54.148;12.174;2022-07-18T17:06:37;101971.81;;;28.61;nan
53514;BME280;39768;54.148;12.174;2022-07-18T17:10:38;101962.56;;;28.89;nan
53514;BME280;39768;54.148;12.174;2022-07-18T17:14:40;101961.75;;;31.03;nan
53514;BME280;39768;54.148;12.174;2022-07-18T17:18:43;101963.13;;;34.22;nan
53514;BME280;39768;54.148;12.174;2022-07-18T17:22:45;101962.78;;;33.86;nan
53514;BME280;39768;54.148;12.174;2022-07-18T17:26:47;101959.19;;;33.15;nan
53514;BME280;39768;54.148;12.174;2022-07-18T17:30:49;101953.75;;;33.25;nan
53514;BME280;39768;54.148;12.174;2022-07-18T17:34:52;101952.16;;;32.07;nan
53514;BME280;39768;54.148;12.174;2022-07-18T17:38:53;101955.88;;;32.70;nan
53514;BME280;39768;54.148;12.174;2022-07-18T17:42:55;101933.31;;;30.00;nan
53514;BME280;39768;54.148;12.174;2022-07-18T17:46:57;101934.13;;;29.66;nan
53514;BME280;39768;54.148;12.174;2022-07-18T17:50:59;101939.03;;;28.86;nan
53514;BME280;39768;54.148;12.174;2022-07-18T17:55:02;101938.47;;;29.19;nan
53514;BME280;39768;54.148;12.174;2022-07-18T17:59:04;101937.34;;;29.71;nan
53514;BME280;39768;54.148;12.174;2022-07-18T18:03:06;101938.25;;;30.19;nan
53514;BME280;39768;54.148;12.174;2022-07-18T18:07:07;101931.91;;;30.19;nan
53514;BME280;39768;54.148;12.174;2022-07-18T18:11:09;101939.38;;;29.56;nan
53514;BME280;39768;54.148;12.174;2022-07-18T18:15:11;101934.00;;;29.05;nan
53514;BME280;39768;54.148;12.174;2022-07-18T18:19:12;101931.63;;;28.88;nan
53514;BME280;39768;54.148;12.174;2022-07-18T18:23:14;101924.63;;;28.84;nan
53514;BME280;39768;54.148;12.174;2022-07-18T18:27:15;101928.59;;;28.40;nan
53514;BME280;39768;54.148;12.174;2022-07-18T18:31:17;101921.34;;;27.87;nan
53514;BME280;39768;54.148;12.174;2022-07-18T18:35:18;101913.75;;;27.78;nan
53514;BME280;39768;54.148;12.174;2022-07-18T18:39:33;101917.63;;;27.61;nan
53514;BME280;39768;54.148;12.174;2022-07-18T18:43:36;101909.53;;;27.46;nan
53514;BME280;39768;54.148;12.174;2022-07-18T18:47:38;101910.06;;;27.38;nan
53514;BME280;39768;54.148;12.174;2022-07-18T18:51:42;101907.84;;;27.30;nan
53514;BME280;39768;54.148;12.174;2022-07-18T18:55:44;101900.00;;;27.12;nan
53514;BME280;39768;54.148;12.174;2022-07-18T18:59:46;101893.84;;;26.80;nan
53514;BME280;39768;54.148;12.174;2022-07-18T19:03:47;101886.03;;;26.45;nan
53514;BME280;39768;54.148;12.174;2022-07-18T19:07:55;101882.75;;;26.24;nan
53514;BME280;39768;54.148;12.174;2022-07-18T19:11:56;101890.81;;;26.12;nan
53514;BME280;39768;54.148;12.174;2022-07-18T19:15:58;101886.50;;;26.08;nan
53514;BME280;39768;54.148;12.174;2022-07-18T19:19:59;101884.63;;;25.94;nan
53514;BME280;39768;54.148;12.174;2022-07-18T19:24:02;101891.63;;;25.82;nan
53514;BME280;39768;54.148;12.174;2022-07-18T19:28:04;101880.53;;;25.71;nan
53514;BME280;39768;54.148;12.174;2022-07-18T19:32:06;101890.53;;;25.71;nan
53514;BME280;39768;54.148;12.174;2022-07-18T19:36:07;101895.00;;;25.40;nan
53514;BME280;39768;54.148;12.174;2022-07-18T19:40:09;101894.75;;;25.45;nan
53514;BME280;39768;54.148;12.174;2022-07-18T19:44:11;101891.59;;;25.37;nan
53514;BME280;39768;54.148;12.174;2022-07-18T19:48:17;101891.94;;;25.30;nan
53514;BME280;39768;54.148;12.174;2022-07-18T19:52:18;101901.41;;;24.57;nan
53514;BME280;39768;54.148;12.174;2022-07-18T19:56:20;101907.91;;;23.67;nan
53514;BME280;39768;54.148;12.174;2022-07-18T20:00:22;101903.47;;;23.29;nan
53514;BME280;39768;54.148;12.174;2022-07-18T20:04:24;101905.00;;;22.97;nan
53514;BME280;39768;54.148;12.174;2022-07-18T20:08:26;101906.50;;;22.63;nan
53514;BME280;39768;54.148;12.174;2022-07-18T20:12:27;101903.50;;;22.90;nan
53514;BME280;39768;54.148;12.174;2022-07-18T20:16:29;101906.72;;;22.79;nan
53514;BME280;39768;54.148;12.174;2022-07-18T20:20:31;101901.47;;;22.74;nan
53514;BME280;39768;54.148;12.174;2022-07-18T20:24:33;101900.09;;;22.66;nan
53514;BME280;39768;54.148;12.174;2022-07-18T20:28:34;101903.59;;;22.68;nan
53514;BME280;39768;54.148;12.174;2022-07-18T20:32:36;101909.44;;;22.18;nan
53514;BME280;39768;54.148;12.174;2022-07-18T20:36:38;101899.50;;;22.39;nan
53514;BME280;39768;54.148;12.174;2022-07-18T20:40:39;101902.47;;;22.33;nan
53514;BME280;39768;54.148;12.174;2022-07-18T20:44:41;101904.69;;;22.43;nan
53514;BME280;39768;54.148;12.174;2022-07-18T20:48:42;101905.31;;;22.09;nan
53514;BME280;39768;54.148;12.174;2022-07-18T20:52:44;101909.63;;;22.34;nan
53514;BME280;39768;54.148;12.174;2022-07-18T20:56:45;101902.78;;;21.83;nan
53514;BME280;39768;54.148;12.174;2022-07-18T21:00:46;101904.28;;;21.90;nan
53514;BME280;39768;54.148;12.174;2022-07-18T21:04:48;101899.47;;;21.55;nan
53514;BME280;39768;54.148;12.174;2022-07-18T21:08:50;101913.59;;;21.39;nan
53514;BME280;39768;54.148;12.174;2022-07-18T21:12:51;101912.97;;;21.55;nan
53514;BME280;39768;54.148;12.174;2022-07-18T21:16:53;101915.16;;;21.67;nan
53514;BME280;39768;54.148;12.174;2022-07-18T21:20:55;101915.50;;;21.59;nan
53514;BME280;39768;54.148;12.174;2022-07-18T21:24:56;101911.97;;;21.35;nan
53514;BME280;39768;54.148;12.174;2022-07-18T21:28:57;101911.22;;;21.32;nan
53514;BME280;39768;54.148;12.174;2022-07-18T21:32:59;101908.25;;;21.15;nan
53514;BME280;39768;54.148;12.174;2022-07-18T21:37:00;101909.69;;;21.25;nan
53514;BME280;39768;54.148;12.174;2022-07-18T21:41:02;101912.59;;;21.42;nan
53514;BME280;39768;54.148;12.174;2022-07-18T21:45:04;101920.53;;;21.00;nan
53514;BME280;39768;54.148;12.174;2022-07-18T21:49:06;101915.56;;;20.64;nan
53514;BME280;39768;54.148;12.174;2022-07-18T21:53:07;101922.88;;;20.62;nan